sensor_id;sensor_type;location;lat;lon;timestamp;temperature;humidity
44435;DHT22;30138;20.964;105.830;2022-08-19T00:02:01;26.20;60.00
44435;DHT22;30138;20.964;105.830;2022-08-19T00:07:08;26.20;66.50
44435;DHT22;30138;20.964;105.830;2022-08-19T00:12:18;26.20;59.80
44435;DHT22;30138;20.964;105.830;2022-08-19T00:17:25;26.20;66.30
44435;DHT22;30138;20.964;105.830;2022-08-19T00:22:32;26.20;59.70
44435;DHT22;30138;20.964;105.830;2022-08-19T00:27:41;26.20;66.40
44435;DHT22;30138;20.964;105.830;2022-08-19T00:32:48;26.10;59.60
44435;DHT22;30138;20.964;105.830;2022-08-19T00:37:57;26.20;65.50
44435;DHT22;30138;20.964;105.830;2022-08-19T00:43:11;26.10;59.60
44435;DHT22;30138;20.964;105.830;2022-08-19T00:48:19;26.20;65.80
44435;DHT22;30138;20.964;105.830;2022-08-19T00:53:28;26.10;59.90
44435;DHT22;30138;20.964;105.830;2022-08-19T00:58:38;26.20;65.40
44435;DHT22;30138;20.964;105.830;2022-08-19T01:03:46;26.10;60.30
44435;DHT22;30138;20.964;105.830;2022-08-19T01:08:54;26.10;64.80
44435;DHT22;30138;20.964;105.830;2022-08-19T01:14:04;26.10;60.90
44435;DHT22;30138;20.964;105.830;2022-08-19T01:19:27;26.20;64.70
44435;DHT22;30138;20.964;105.830;2022-08-19T01:24:37;26.10;62.50
44435;DHT22;30138;20.964;105.830;2022-08-19T01:29:44;26.20;63.80
44435;DHT22;30138;20.964;105.830;2022-08-19T01:34:51;26.10;62.50
44435;DHT22;30138;20.964;105.830;2022-08-19T01:40:00;26.20;63.30
44435;DHT22;30138;20.964;105.830;2022-08-19T01:45:09;26.10;63.50
44435;DHT22;30138;20.964;105.830;2022-08-19T01:50:16;26.20;62.90
44435;DHT22;30138;20.964;105.830;2022-08-19T01:55:25;26.10;63.40
44435;DHT22;30138;20.964;105.830;2022-08-19T02:00:33;26.20;62.40
44435;DHT22;30138;20.964;105.830;2022-08-19T02:05:42;26.20;64.60
44435;DHT22;30138;20.964;105.830;2022-08-19T02:10:51;26.20;62.30
44435;DHT22;30138;20.964;105.830;2022-08-19T02:15:58;26.20;65.50
44435;DHT22;30138;20.964;105.830;2022-08-19T02:21:06;26.20;61.80
44435;DHT22;30138;20.964;105.830;2022-08-19T02:26:16;26.20;66.10
44435;DHT22;30138;20.964;105.830;2022-08-19T02:31:24;26.20;61.60
44435;DHT22;30138;20.964;105.830;2022-08-19T02:36:32;26.20;66.60
44435;DHT22;30138;20.964;105.830;2022-08-19T02:41:41;26.20;61.30
44435;DHT22;30138;20.964;105.830;2022-08-19T02:46:48;26.20;66.80
44435;DHT22;30138;20.964;105.830;2022-08-19T02:51:55;26.20;60.80
44435;DHT22;30138;20.964;105.830;2022-08-19T02:57:04;26.30;67.10
44435;DHT22;30138;20.964;105.830;2022-08-19T03:02:12;26.30;60.60
44435;DHT22;30138;20.964;105.830;2022-08-19T03:07:19;26.30;67.40
44435;DHT22;30138;20.964;105.830;2022-08-19T03:12:28;26.30;60.60
44435;DHT22;30138;20.964;105.830;2022-08-19T03:17:35;26.30;67.40
44435;DHT22;30138;20.964;105.830;2022-08-19T03:22:42;26.30;60.60
44435;DHT22;30138;20.964;105.830;2022-08-19T03:27:51;26.40;67.60
44435;DHT22;30138;20.964;105.830;2022-08-19T03:33:01;26.30;60.60
44435;DHT22;30138;20.964;105.830;2022-08-19T03:38:08;26.40;67.90
44435;DHT22;30138;20.964;105.830;2022-08-19T03:43:17;26.50;69.60
44435;DHT22;30138;20.964;105.830;2022-08-19T03:48:24;26.50;74.80
44435;DHT22;30138;20.964;105.830;2022-08-19T03:53:32;26.50;66.10
44435;DHT22;30138;20.964;105.830;2022-08-19T03:58:42;26.60;71.10
44435;DHT22;30138;20.964;105.830;2022-08-19T04:03:50;26.50;64.00
44435;DHT22;30138;20.964;105.830;2022-08-19T04:08:59;26.60;69.30
44435;DHT22;30138;20.964;105.830;2022-08-19T04:14:10;26.50;63.30
44435;DHT22;30138;20.964;105.830;2022-08-19T04:19:18;26.60;68.00
44435;DHT22;30138;20.964;105.830;2022-08-19T04:24:26;26.60;63.60
44435;DHT22;30138;20.964;105.830;2022-08-19T04:29:36;26.60;67.20
44435;DHT22;30138;20.964;105.830;2022-08-19T04:34:43;26.60;64.10
44435;DHT22;30138;20.964;105.830;2022-08-19T04:39:50;26.60;66.50
44435;DHT22;30138;20.964;105.830;2022-08-19T04:45:15;26.60;64.20
44435;DHT22;30138;20.964;105.830;2022-08-19T04:50:22;26.70;65.50
44435;DHT22;30138;20.964;105.830;2022-08-19T04:55:30;26.70;64.80
44435;DHT22;30138;20.964;105.830;2022-08-19T05:00:41;26.70;64.80
44435;DHT22;30138;20.964;105.830;2022-08-19T05:05:49;26.70;65.40
44435;DHT22;30138;20.964;105.830;2022-08-19T05:10:56;26.70;61.60
44435;DHT22;30138;20.964;105.830;2022-08-19T05:16:05;26.70;65.60
44435;DHT22;30138;20.964;105.830;2022-08-19T05:21:15;26.60;59.70
44435;DHT22;30138;20.964;105.830;2022-08-19T05:26:40;26.70;67.20
44435;DHT22;30138;20.964;105.830;2022-08-19T05:31:51;26.70;61.00
44435;DHT22;30138;20.964;105.830;2022-08-19T05:37:02;26.70;66.70
44435;DHT22;30138;20.964;105.830;2022-08-19T05:42:11;26.70;62.10
44435;DHT22;30138;20.964;105.830;2022-08-19T05:47:20;26.70;66.70
44435;DHT22;30138;20.964;105.830;2022-08-19T05:52:27;26.70;62.60
44435;DHT22;30138;20.964;105.830;2022-08-19T05:57:34;26.80;63.40
44435;DHT22;30138;20.964;105.830;2022-08-19T06:02:43;26.80;63.40
44435;DHT22;30138;20.964;105.830;2022-08-19T06:07:50;26.80;63.00
44435;DHT22;30138;20.964;105.830;2022-08-19T06:12:57;26.80;65.20
44435;DHT22;30138;20.964;105.830;2022-08-19T06:18:06;26.80;60.40
44435;DHT22;30138;20.964;105.830;2022-08-19T06:23:13;26.80;64.50
44435;DHT22;30138;20.964;105.830;2022-08-19T06:28:20;26.80;59.00
44435;DHT22;30138;20.964;105.830;2022-08-19T06:33:32;26.80;62.60
44435;DHT22;30138;20.964;105.830;2022-08-19T06:38:40;26.80;60.50
44435;DHT22;30138;20.964;105.830;2022-08-19T06:43:47;26.80;60.70
44435;DHT22;30138;20.964;105.830;2022-08-19T06:48:56;26.80;63.90
44435;DHT22;30138;20.964;105.830;2022-08-19T06:54:04;26.80;59.20
44435;DHT22;30138;20.964;105.830;2022-08-19T06:59:13;26.90;63.70
44435;DHT22;30138;20.964;105.830;2022-08-19T07:04:25;26.80;58.40
44435;DHT22;30138;20.964;105.830;2022-08-19T07:09:35;26.90;62.30
44435;DHT22;30138;20.964;105.830;2022-08-19T07:14:43;26.80;60.10
44435;DHT22;30138;20.964;105.830;2022-08-19T07:19:53;26.90;60.50
44435;DHT22;30138;20.964;105.830;2022-08-19T07:25:00;26.90;63.00
44435;DHT22;30138;20.964;105.830;2022-08-19T07:30:08;26.90;59.30
44435;DHT22;30138;20.964;105.830;2022-08-19T07:35:18;27.00;70.40
44435;DHT22;30138;20.964;105.830;2022-08-19T07:40:25;27.00;70.40
44435;DHT22;30138;20.964;105.830;2022-08-19T07:45:32;27.10;70.80
44435;DHT22;30138;20.964;105.830;2022-08-19T07:50:41;27.10;67.60
44435;DHT22;30138;20.964;105.830;2022-08-19T07:55:48;27.10;66.60
44435;DHT22;30138;20.964;105.830;2022-08-19T08:00:55;27.10;67.10
44435;DHT22;30138;20.964;105.830;2022-08-19T08:06:05;27.10;62.50
44435;DHT22;30138;20.964;105.830;2022-08-19T08:11:29;27.10;66.40
44435;DHT22;30138;20.964;105.830;2022-08-19T08:16:36;27.10;60.10
44435;DHT22;30138;20.964;105.830;2022-08-19T08:21:46;27.10;63.80
44435;DHT22;30138;20.964;105.830;2022-08-19T08:26:54;27.10;61.30
44435;DHT22;30138;20.964;105.830;2022-08-19T08:32:02;27.10;61.40
44435;DHT22;30138;20.964;105.830;2022-08-19T08:37:12;27.10;63.50
44435;DHT22;30138;20.964;105.830;2022-08-19T08:42:24;27.10;59.60
44435;DHT22;30138;20.964;105.830;2022-08-19T08:47:37;27.20;67.30
44435;DHT22;30138;20.964;105.830;2022-08-19T08:52:50;27.20;60.60
44435;DHT22;30138;20.964;105.830;2022-08-19T08:58:03;27.20;63.60
44435;DHT22;30138;20.964;105.830;2022-08-19T09:03:17;27.20;61.90
44435;DHT22;30138;20.964;105.830;2022-08-19T09:08:38;27.20;60.60
44435;DHT22;30138;20.964;105.830;2022-08-19T09:13:53;27.20;63.80
44435;DHT22;30138;20.964;105.830;2022-08-19T09:19:09;27.20;58.70
44435;DHT22;30138;20.964;105.830;2022-08-19T09:24:18;27.20;62.70
44435;DHT22;30138;20.964;105.830;2022-08-19T09:29:25;27.20;58.40
44435;DHT22;30138;20.964;105.830;2022-08-19T09:34:33;27.20;61.00
44435;DHT22;30138;20.964;105.830;2022-08-19T09:39:42;27.20;60.10
44435;DHT22;30138;20.964;105.830;2022-08-19T09:44:49;27.30;66.60
44435;DHT22;30138;20.964;105.830;2022-08-19T09:49:56;27.30;65.30
44435;DHT22;30138;20.964;105.830;2022-08-19T09:55:07;27.30;63.70
44435;DHT22;30138;20.964;105.830;2022-08-19T10:00:15;27.30;61.50
44435;DHT22;30138;20.964;105.830;2022-08-19T10:05:23;27.20;60.60
44435;DHT22;30138;20.964;105.830;2022-08-19T10:10:48;27.20;65.20
44435;DHT22;30138;20.964;105.830;2022-08-19T10:16:04;27.40;70.80
44435;DHT22;30138;20.964;105.830;2022-08-19T10:21:14;27.70;86.20
44435;DHT22;30138;20.964;105.830;2022-08-19T10:26:27;28.10;92.40
44435;DHT22;30138;20.964;105.830;2022-08-19T10:31:35;28.40;95.80
44435;DHT22;30138;20.964;105.830;2022-08-19T10:36:42;28.60;98.60
44435;DHT22;30138;20.964;105.830;2022-08-19T10:41:51;28.90;99.90
44435;DHT22;30138;20.964;105.830;2022-08-19T10:46:59;29.10;99.90
44435;DHT22;30138;20.964;105.830;2022-08-19T10:52:07;29.20;99.90
44435;DHT22;30138;20.964;105.830;2022-08-19T10:57:31;29.40;99.90
44435;DHT22;30138;20.964;105.830;2022-08-19T11:02:38;29.60;99.90
44435;DHT22;30138;20.964;105.830;2022-08-19T11:07:45;29.70;99.90
44435;DHT22;30138;20.964;105.830;2022-08-19T11:12:55;29.80;99.90
44435;DHT22;30138;20.964;105.830;2022-08-19T11:18:03;29.90;99.90
44435;DHT22;30138;20.964;105.830;2022-08-19T11:23:11;30.00;99.90
44435;DHT22;30138;20.964;105.830;2022-08-19T11:28:20;30.10;99.90
44435;DHT22;30138;20.964;105.830;2022-08-19T11:33:27;30.20;99.90
44435;DHT22;30138;20.964;105.830;2022-08-19T11:38:34;30.30;99.90
44435;DHT22;30138;20.964;105.830;2022-08-19T11:43:43;30.40;99.90
44435;DHT22;30138;20.964;105.830;2022-08-19T11:48:50;30.40;99.90
44435;DHT22;30138;20.964;105.830;2022-08-19T11:53:58;30.50;99.90
44435;DHT22;30138;20.964;105.830;2022-08-19T11:59:09;30.50;99.90
44435;DHT22;30138;20.964;105.830;2022-08-19T12:04:16;30.60;99.90
44435;DHT22;30138;20.964;105.830;2022-08-19T12:09:23;30.60;99.90
44435;DHT22;30138;20.964;105.830;2022-08-19T12:14:32;30.60;99.90
44435;DHT22;30138;20.964;105.830;2022-08-19T12:19:39;30.70;99.90
44435;DHT22;30138;20.964;105.830;2022-08-19T12:24:47;30.70;99.90
44435;DHT22;30138;20.964;105.830;2022-08-19T12:29:58;30.80;99.90
44435;DHT22;30138;20.964;105.830;2022-08-19T12:35:06;30.80;99.90
44435;DHT22;30138;20.964;105.830;2022-08-19T12:40:15;30.90;99.90
44435;DHT22;30138;20.964;105.830;2022-08-19T12:45:24;30.90;99.90
44435;DHT22;30138;20.964;105.830;2022-08-19T12:50:31;30.90;99.90
44435;DHT22;30138;20.964;105.830;2022-08-19T12:55:38;31.00;99.90
44435;DHT22;30138;20.964;105.830;2022-08-19T13:00:48;31.00;99.90
44435;DHT22;30138;20.964;105.830;2022-08-19T13:05:55;31.00;99.90
44435;DHT22;30138;20.964;105.830;2022-08-19T13:11:09;31.00;99.90
44435;DHT22;30138;20.964;105.830;2022-08-19T13:16:19;31.10;99.90
44435;DHT22;30138;20.964;105.830;2022-08-19T13:21:27;31.10;99.90
44435;DHT22;30138;20.964;105.830;2022-08-19T13:26:34;31.10;99.90
44435;DHT22;30138;20.964;105.830;2022-08-19T13:31:43;31.10;99.90
44435;DHT22;30138;20.964;105.830;2022-08-19T13:37:06;31.20;99.90
44435;DHT22;30138;20.964;105.830;2022-08-19T13:42:13;31.20;99.90
44435;DHT22;30138;20.964;105.830;2022-08-19T13:47:22;31.30;99.90
44435;DHT22;30138;20.964;105.830;2022-08-19T13:52:29;31.30;99.90
44435;DHT22;30138;20.964;105.830;2022-08-19T13:57:37;31.20;99.90
44435;DHT22;30138;20.964;105.830;2022-08-19T14:02:48;30.90;94.60
44435;DHT22;30138;20.964;105.830;2022-08-19T14:07:57;30.60;84.20
44435;DHT22;30138;20.964;105.830;2022-08-19T14:13:05;30.20;73.30
44435;DHT22;30138;20.964;105.830;2022-08-19T14:18:14;29.90;66.20
44435;DHT22;30138;20.964;105.830;2022-08-19T14:23:21;29.50;61.60
44435;DHT22;30138;20.964;105.830;2022-08-19T14:28:28;29.20;58.60
44435;DHT22;30138;20.964;105.830;2022-08-19T14:33:37;29.00;56.80
44435;DHT22;30138;20.964;105.830;2022-08-19T14:38:45;28.80;58.20
44435;DHT22;30138;20.964;105.830;2022-08-19T14:43:53;28.60;55.90
44435;DHT22;30138;20.964;105.830;2022-08-19T14:49:03;28.30;54.40
44435;DHT22;30138;20.964;105.830;2022-08-19T14:54:10;28.10;53.30
44435;DHT22;30138;20.964;105.830;2022-08-19T14:59:17;28.00;52.50
44435;DHT22;30138;20.964;105.830;2022-08-19T15:04:26;27.80;51.80
44435;DHT22;30138;20.964;105.830;2022-08-19T15:09:33;27.60;51.40
44435;DHT22;30138;20.964;105.830;2022-08-19T15:14:40;27.50;50.80
44435;DHT22;30138;20.964;105.830;2022-08-19T15:19:55;27.40;50.40
44435;DHT22;30138;20.964;105.830;2022-08-19T15:25:02;27.30;55.80
44435;DHT22;30138;20.964;105.830;2022-08-19T15:30:12;27.20;53.30
44435;DHT22;30138;20.964;105.830;2022-08-19T15:35:25;27.10;51.70
44435;DHT22;30138;20.964;105.830;2022-08-19T15:40:33;27.00;50.70
44435;DHT22;30138;20.964;105.830;2022-08-19T15:45:40;26.90;50.10
44435;DHT22;30138;20.964;105.830;2022-08-19T15:50:49;26.80;49.70
44435;DHT22;30138;20.964;105.830;2022-08-19T15:55:57;26.70;49.30
44435;DHT22;30138;20.964;105.830;2022-08-19T16:01:06;26.70;51.20
44435;DHT22;30138;20.964;105.830;2022-08-19T16:06:32;26.70;60.70
44435;DHT22;30138;20.964;105.830;2022-08-19T16:11:40;26.70;56.90
44435;DHT22;30138;20.964;105.830;2022-08-19T16:16:47;26.60;53.80
44435;DHT22;30138;20.964;105.830;2022-08-19T16:21:56;26.50;51.80
44435;DHT22;30138;20.964;105.830;2022-08-19T16:27:03;26.40;50.60
44435;DHT22;30138;20.964;105.830;2022-08-19T16:32:11;26.40;49.80
44435;DHT22;30138;20.964;105.830;2022-08-19T16:37:21;26.30;49.40
44435;DHT22;30138;20.964;105.830;2022-08-19T16:42:28;26.20;48.90
44435;DHT22;30138;20.964;105.830;2022-08-19T16:47:37;26.20;48.50
44435;DHT22;30138;20.964;105.830;2022-08-19T16:52:45;26.10;48.30
44435;DHT22;30138;20.964;105.830;2022-08-19T16:57:53;26.00;48.00
44435;DHT22;30138;20.964;105.830;2022-08-19T17:03:05;26.00;48.00
44435;DHT22;30138;20.964;105.830;2022-08-19T17:08:16;25.90;47.60
44435;DHT22;30138;20.964;105.830;2022-08-19T17:13:26;25.90;47.90
44435;DHT22;30138;20.964;105.830;2022-08-19T17:18:37;25.80;47.80
44435;DHT22;30138;20.964;105.830;2022-08-19T17:23:46;25.80;47.70
44435;DHT22;30138;20.964;105.830;2022-08-19T17:28:54;25.70;47.50
44435;DHT22;30138;20.964;105.830;2022-08-19T17:34:01;25.70;47.50
44435;DHT22;30138;20.964;105.830;2022-08-19T17:39:10;25.70;47.50
44435;DHT22;30138;20.964;105.830;2022-08-19T17:44:18;25.70;47.50
44435;DHT22;30138;20.964;105.830;2022-08-19T17:49:25;25.60;47.50
44435;DHT22;30138;20.964;105.830;2022-08-19T17:54:34;25.60;47.30
44435;DHT22;30138;20.964;105.830;2022-08-19T17:59:41;25.50;47.10
44435;DHT22;30138;20.964;105.830;2022-08-19T18:04:48;25.50;47.00
44435;DHT22;30138;20.964;105.830;2022-08-19T18:09:57;25.50;47.00
44435;DHT22;30138;20.964;105.830;2022-08-19T18:15:05;25.50;53.50
44435;DHT22;30138;20.964;105.830;2022-08-19T18:20:14;25.60;54.00
44435;DHT22;30138;20.964;105.830;2022-08-19T18:25:25;25.70;58.50
44435;DHT22;30138;20.964;105.830;2022-08-19T18:30:32;25.70;56.40
44435;DHT22;30138;20.964;105.830;2022-08-19T18:35:41;25.90;61.20
44435;DHT22;30138;20.964;105.830;2022-08-19T18:40:52;25.90;57.40
44435;DHT22;30138;20.964;105.830;2022-08-19T18:46:15;26.00;63.10
44435;DHT22;30138;20.964;105.830;2022-08-19T18:51:38;26.00;57.60
44435;DHT22;30138;20.964;105.830;2022-08-19T18:56:47;26.20;63.80
44435;DHT22;30138;20.964;105.830;2022-08-19T19:01:58;26.10;57.90
44435;DHT22;30138;20.964;105.830;2022-08-19T19:07:06;26.20;63.80
44435;DHT22;30138;20.964;105.830;2022-08-19T19:12:15;26.20;58.40
44435;DHT22;30138;20.964;105.830;2022-08-19T19:17:23;26.30;63.60
44435;DHT22;30138;20.964;105.830;2022-08-19T19:22:30;26.20;58.60
44435;DHT22;30138;20.964;105.830;2022-08-19T19:27:39;26.30;63.50
44435;DHT22;30138;20.964;105.830;2022-08-19T19:32:46;26.20;58.80
44435;DHT22;30138;20.964;105.830;2022-08-19T19:37:53;26.30;63.30
44435;DHT22;30138;20.964;105.830;2022-08-19T19:43:02;26.20;59.30
44435;DHT22;30138;20.964;105.830;2022-08-19T19:48:09;26.30;62.80
44435;DHT22;30138;20.964;105.830;2022-08-19T19:53:18;26.20;59.50
44435;DHT22;30138;20.964;105.830;2022-08-19T19:58:29;26.30;62.50
44435;DHT22;30138;20.964;105.830;2022-08-19T20:03:38;26.30;59.90
44435;DHT22;30138;20.964;105.830;2022-08-19T20:08:46;26.30;62.00
44435;DHT22;30138;20.964;105.830;2022-08-19T20:14:12;26.20;61.30
44435;DHT22;30138;20.964;105.830;2022-08-19T20:19:21;26.30;61.10
44435;DHT22;30138;20.964;105.830;2022-08-19T20:24:31;26.20;62.80
44435;DHT22;30138;20.964;105.830;2022-08-19T20:29:41;26.20;60.80
44435;DHT22;30138;20.964;105.830;2022-08-19T20:34:48;26.20;62.80
44435;DHT22;30138;20.964;105.830;2022-08-19T20:39:55;26.20;60.40
44435;DHT22;30138;20.964;105.830;2022-08-19T20:45:05;26.20;65.10
44435;DHT22;30138;20.964;105.830;2022-08-19T20:50:13;26.20;60.10
44435;DHT22;30138;20.964;105.830;2022-08-19T20:55:20;26.20;64.50
44435;DHT22;30138;20.964;105.830;2022-08-19T21:00:30;26.20;59.70
44435;DHT22;30138;20.964;105.830;2022-08-19T21:05:37;26.20;65.50
44435;DHT22;30138;20.964;105.830;2022-08-19T21:10:44;26.20;59.30
44435;DHT22;30138;20.964;105.830;2022-08-19T21:15:53;26.20;65.50
44435;DHT22;30138;20.964;105.830;2022-08-19T21:21:00;26.20;59.00
44435;DHT22;30138;20.964;105.830;2022-08-19T21:26:08;26.20;65.40
44435;DHT22;30138;20.964;105.830;2022-08-19T21:31:16;26.10;58.60
44435;DHT22;30138;20.964;105.830;2022-08-19T21:36:24;26.20;65.00
44435;DHT22;30138;20.964;105.830;2022-08-19T21:41:31;26.10;58.20
44435;DHT22;30138;20.964;105.830;2022-08-19T21:46:39;26.10;64.40
44435;DHT22;30138;20.964;105.830;2022-08-19T21:51:46;26.00;58.00
44435;DHT22;30138;20.964;105.830;2022-08-19T21:56:53;26.10;64.40
44435;DHT22;30138;20.964;105.830;2022-08-19T22:02:02;26.00;58.00
44435;DHT22;30138;20.964;105.830;2022-08-19T22:07:10;26.10;63.70
44435;DHT22;30138;20.964;105.830;2022-08-19T22:12:21;26.00;58.20
44435;DHT22;30138;20.964;105.830;2022-08-19T22:17:31;26.10;63.20
44435;DHT22;30138;20.964;105.830;2022-08-19T22:22:44;25.90;58.40
44435;DHT22;30138;20.964;105.830;2022-08-19T22:27:54;26.00;62.70
44435;DHT22;30138;20.964;105.830;2022-08-19T22:33:05;25.90;58.60
44435;DHT22;30138;20.964;105.830;2022-08-19T22:38:15;25.90;62.20
44435;DHT22;30138;20.964;105.830;2022-08-19T22:43:24;25.90;59.70
44435;DHT22;30138;20.964;105.830;2022-08-19T22:48:34;25.90;61.50
44435;DHT22;30138;20.964;105.830;2022-08-19T22:53:42;25.90;59.70
44435;DHT22;30138;20.964;105.830;2022-08-19T22:58:50;25.90;61.10
44435;DHT22;30138;20.964;105.830;2022-08-19T23:04:00;25.80;59.90
44435;DHT22;30138;20.964;105.830;2022-08-19T23:09:08;25.80;60.50
44435;DHT22;30138;20.964;105.830;2022-08-19T23:14:15;25.80;60.90
44435;DHT22;30138;20.964;105.830;2022-08-19T23:19:24;25.80;60.20
44435;DHT22;30138;20.964;105.830;2022-08-19T23:24:31;25.70;61.30
44435;DHT22;30138;20.964;105.830;2022-08-19T23:29:38;25.70;59.80
44435;DHT22;30138;20.964;105.830;2022-08-19T23:35:04;25.70;61.60
44435;DHT22;30138;20.964;105.830;2022-08-19T23:40:11;25.70;59.10
44435;DHT22;30138;20.964;105.830;2022-08-19T23:45:20;25.70;63.60
44435;DHT22;30138;20.964;105.830;2022-08-19T23:50:30;25.70;59.30
44435;DHT22;30138;20.964;105.830;2022-08-19T23:55:39;25.70;63.30
